Terminal Aerodrome Forecast
Issued by NWS

Home | Current Version | Previous Version | Text Only | Print | Product List | Glossary On
Versions: 1 2 3 4 5 6 7 8 9 10 11 12 13 14 15
706
FTUS42 TJSJ 300548
TAFJSJ
TAF
TJSJ 300548Z 3006/0106 VRB03KT P6SM -SHRA VCTS FEW040CB SCT080
      SCT100
      TEMPO 3008/3012 VRB12G20KT 5SM SHRA SCT025 BKN040
     FM301330 09008KT P6SM VCSH SCT025 BKN100
     FM301800 13010KT P6SM VCTS SCT025CB SCT050 OVC100
     FM302200 12005KT P6SM FEW030 SCT080=

USA.gov is the U.S. government's official web portal to all federal, state and local government web resources and services.